Time;durP1;ratioP1;P1;durP2;ratioP2;P2;SDS_P1;SDS_P2;PMS_P1;PMS_P2;Temp;Humidity;BMP_temperature;BMP_pressure;BME280_temperature;BME280_humidity;BME280_pressure;Samples;Min_cycle;Max_cycle;Signal;HPM_P1;HPM_P2
2023/06/24 00:02:23;;;;;;;5.70;5.20;;;;;;;;;;5064488;28;41589;-27
2023/06/24 00:04:52;;;;;;;6.88;5.25;;;;;;;;;;5066082;28;41704;-27
2023/06/24 00:07:22;;;;;;;6.47;5.80;;;;;;;;;;5064504;28;43761;-28
2023/06/24 00:09:50;;;;;;;6.80;5.40;;;;;;;;;;5063850;28;40331;-30
2023/06/24 00:12:19;;;;;;;7.25;5.07;;;;;;;;;;5064917;28;43128;-28
2023/06/24 00:14:47;;;;;;;7.50;5.15;;;;;;;;;;5065800;28;40324;-28
2023/06/24 00:17:16;;;;;;;6.57;5.15;;;;;;;;;;5064209;28;42621;-28
2023/06/24 00:19:44;;;;;;;5.93;5.32;;;;;;;;;;5065288;28;44056;-28
2023/06/24 00:22:12;;;;;;;7.10;5.32;;;;;;;;;;5060809;28;40734;-28
2023/06/24 00:24:44;;;;;;;5.32;4.78;;;;;;;;;;5061271;28;42975;-28
2023/06/24 00:27:12;;;;;;;5.40;4.90;;;;;;;;;;5065277;28;44468;-30
2023/06/24 00:29:40;;;;;;;7.35;5.82;;;;;;;;;;5064418;28;42302;-28
2023/06/24 00:32:08;;;;;;;5.68;5.03;;;;;;;;;;5066237;28;44125;-28
2023/06/24 00:34:36;;;;;;;8.73;5.93;;;;;;;;;;5063497;28;39246;-28
2023/06/24 00:37:04;;;;;;;5.97;5.43;;;;;;;;;;5065629;28;42749;-28
2023/06/24 00:39:33;;;;;;;7.55;5.95;;;;;;;;;;5063928;28;43505;-28
2023/06/24 00:42:02;;;;;;;6.53;5.93;;;;;;;;;;5050859;28;39704;-28
2023/06/24 00:44:30;;;;;;;6.30;5.70;;;;;;;;;;5064568;28;43768;-26
2023/06/24 00:47:01;;;;;;;6.57;5.47;;;;;;;;;;5063774;28;41455;-29
2023/06/24 00:49:29;;;;;;;8.48;5.38;;;;;;;;;;5065497;28;41576;-33
2023/06/24 00:52:00;;;;;;;9.90;5.28;;;;;;;;;;5065567;28;42221;-30
2023/06/24 00:54:31;;;;;;;5.88;5.28;;;;;;;;;;5062504;28;33176;-29
2023/06/24 00:57:01;;;;;;;6.57;5.45;;;;;;;;;;5063461;28;41401;-30
2023/06/24 00:59:31;;;;;;;5.50;5.00;;;;;;;;;;5063028;28;42776;-30
2023/06/24 01:02:01;;;;;;;8.18;5.80;;;;;;;;;;5063325;28;40217;-31
2023/06/24 01:04:29;;;;;;;6.97;5.63;;;;;;;;;;5080144;28;41043;-30
2023/06/24 01:06:57;;;;;;;6.47;5.75;;;;;;;;;;5065320;28;44008;-31
2023/06/24 01:09:26;;;;;;;7.70;5.78;;;;;;;;;;5065225;28;39874;-30
2023/06/24 01:11:54;;;;;;;6.85;5.32;;;;;;;;;;5062652;28;42377;-32
2023/06/24 01:14:23;;;;;;;7.22;5.28;;;;;;;;;;5065053;28;43825;-31
2023/06/24 01:16:55;;;;;;;6.13;5.10;;;;;;;;;;5059702;28;43572;-33
2023/06/24 01:19:29;;;;;;;6.20;5.57;;;;;;;;;;5065996;28;42265;-31
2023/06/24 01:22:00;;;;;;;8.38;6.10;;;;;;;;;;5065853;28;40245;-29
2023/06/24 01:24:32;;;;;;;8.02;5.97;;;;;;;;;;5065219;28;43341;-33
2023/06/24 01:27:09;;;;;;;6.70;5.28;;;;;;;;;;5065532;28;43104;-29
2023/06/24 01:29:46;;;;;;;6.50;5.75;;;;;;;;;;5056256;28;38917;-32
2023/06/24 01:32:16;;;;;;;7.57;5.55;;;;;;;;;;5067411;28;43785;-30
2023/06/24 01:34:45;;;;;;;7.28;5.35;;;;;;;;;;5066399;28;43074;-33
2023/06/24 01:37:15;;;;;;;7.65;6.25;;;;;;;;;;5067052;28;39899;-31
2023/06/24 01:39:44;;;;;;;9.63;5.22;;;;;;;;;;5067155;28;44856;-31
2023/06/24 01:42:12;;;;;;;8.05;5.68;;;;;;;;;;5068116;28;40491;-29
2023/06/24 01:44:40;;;;;;;7.60;5.57;;;;;;;;;;5067400;28;43166;-28
2023/06/24 01:47:10;;;;;;;6.90;5.72;;;;;;;;;;5064979;28;41823;-29
2023/06/24 01:49:40;;;;;;;7.05;5.80;;;;;;;;;;5067030;28;40402;-28
2023/06/24 01:52:08;;;;;;;6.00;5.40;;;;;;;;;;5068061;28;43360;-29
2023/06/24 01:54:36;;;;;;;7.05;5.60;;;;;;;;;;5066929;28;44315;-28
2023/06/24 01:57:04;;;;;;;5.40;4.90;;;;;;;;;;5068251;28;41289;-30
2023/06/24 01:59:32;;;;;;;6.47;5.35;;;;;;;;;;5066361;28;41640;-28
2023/06/24 02:02:00;;;;;;;6.97;5.70;;;;;;;;;;5065599;28;38841;-29
2023/06/24 02:04:30;;;;;;;7.28;5.38;;;;;;;;;;5065906;28;43895;-30
2023/06/24 02:07:00;;;;;;;6.20;5.60;;;;;;;;;;5066725;28;44463;-32
2023/06/24 02:09:28;;;;;;;6.30;5.57;;;;;;;;;;5067667;28;41336;-29
2023/06/24 02:11:56;;;;;;;5.45;4.95;;;;;;;;;;5066251;28;42334;-28
2023/06/24 02:14:24;;;;;;;6.40;5.78;;;;;;;;;;5064844;28;42063;-29
2023/06/24 02:16:56;;;;;;;6.00;5.40;;;;;;;;;;5066228;28;39279;-28
2023/06/24 02:19:24;;;;;;;7.28;5.57;;;;;;;;;;5057874;28;43746;-31
2023/06/24 02:21:53;;;;;;;6.00;5.40;;;;;;;;;;5067095;28;44324;-32
2023/06/24 02:24:24;;;;;;;6.43;5.25;;;;;;;;;;5064644;28;42286;-28
2023/06/24 02:26:52;;;;;;;5.97;5.47;;;;;;;;;;5065853;28;42106;-29
2023/06/24 02:29:20;;;;;;;6.47;4.80;;;;;;;;;;5062777;28;39692;-28
2023/06/24 02:31:50;;;;;;;5.15;4.65;;;;;;;;;;5065810;28;42322;-28
2023/06/24 02:34:19;;;;;;;6.07;5.50;;;;;;;;;;5065227;28;43221;-30
2023/06/24 02:36:47;;;;;;;6.30;5.70;;;;;;;;;;5065461;28;38569;-29
2023/06/24 02:39:15;;;;;;;6.20;5.32;;;;;;;;;;5067432;28;42717;-28
2023/06/24 02:41:45;;;;;;;5.43;4.93;;;;;;;;;;5065419;28;43452;-29
2023/06/24 02:44:13;;;;;;;6.55;5.63;;;;;;;;;;5066761;28;39806;-30
2023/06/24 02:46:40;;;;;;;5.75;5.25;;;;;;;;;;5067025;28;43968;-30
2023/06/24 02:49:08;;;;;;;7.53;5.10;;;;;;;;;;5066727;28;41869;-29
2023/06/24 02:51:36;;;;;;;6.60;5.90;;;;;;;;;;5067206;28;42726;-28
2023/06/24 02:54:04;;;;;;;7.35;6.05;;;;;;;;;;5067347;28;45084;-28
2023/06/24 02:56:56;;;;;;;5.72;5.22;;;;;;;;;;5066334;28;39919;-28
2023/06/24 02:59:31;;;;;;;6.13;5.53;;;;;;;;;;5064948;28;41483;-28
2023/06/24 03:02:01;;;;;;;6.13;5.53;;;;;;;;;;5065388;28;44331;-28
2023/06/24 03:04:29;;;;;;;6.20;5.60;;;;;;;;;;5066060;28;40375;-28
2023/06/24 03:06:59;;;;;;;5.80;5.30;;;;;;;;;;5067292;28;43086;-31
2023/06/24 03:09:27;;;;;;;5.95;5.43;;;;;;;;;;5064326;28;38871;-28
2023/06/24 03:11:56;;;;;;;6.85;5.63;;;;;;;;;;5064597;28;40860;-29
2023/06/24 03:14:35;;;;;;;7.25;5.60;;;;;;;;;;5064244;28;41320;-29
2023/06/24 03:17:03;;;;;;;5.75;5.25;;;;;;;;;;5064796;28;38781;-30
2023/06/24 03:19:31;;;;;;;6.65;5.88;;;;;;;;;;5063502;28;41277;-29
2023/06/24 03:22:00;;;;;;;6.22;5.38;;;;;;;;;;5064496;28;43319;-29
2023/06/24 03:24:28;;;;;;;7.47;6.35;;;;;;;;;;5063387;28;39400;-28
2023/06/24 03:26:57;;;;;;;5.70;5.13;;;;;;;;;;5066118;28;41325;-28
2023/06/24 03:29:32;;;;;;;6.13;5.53;;;;;;;;;;5063874;28;40398;-28
2023/06/24 03:32:08;;;;;;;6.40;5.80;;;;;;;;;;5064420;28;42069;-29
2023/06/24 03:34:36;;;;;;;6.18;5.57;;;;;;;;;;5064092;28;43286;-30
2023/06/24 03:37:05;;;;;;;6.03;5.47;;;;;;;;;;5064668;28;39418;-30
2023/06/24 03:39:36;;;;;;;6.03;5.47;;;;;;;;;;5062925;28;41244;-28
2023/06/24 03:42:07;;;;;;;8.70;5.50;;;;;;;;;;5066168;28;43858;-26
2023/06/24 03:44:35;;;;;;;6.35;5.50;;;;;;;;;;5063075;28;38491;-26
2023/06/24 03:47:03;;;;;;;7.13;5.80;;;;;;;;;;5063116;28;42574;-26
2023/06/24 03:49:31;;;;;;;5.90;5.30;;;;;;;;;;5064191;28;42015;-26
2023/06/24 03:52:00;;;;;;;6.22;5.63;;;;;;;;;;5064598;28;41021;-26
2023/06/24 03:54:28;;;;;;;5.78;5.20;;;;;;;;;;5064826;28;43072;-26
2023/06/24 03:56:56;;;;;;;6.60;5.85;;;;;;;;;;5064627;28;39066;-26
2023/06/24 03:59:25;;;;;;;6.93;5.75;;;;;;;;;;5063525;28;41328;-26
2023/06/24 04:01:56;;;;;;;6.72;6.13;;;;;;;;;;5058035;28;41269;-26
2023/06/24 04:04:24;;;;;;;6.95;6.13;;;;;;;;;;5059077;28;40137;-30
2023/06/24 04:06:52;;;;;;;7.15;6.40;;;;;;;;;;5053268;28;43138;-29
2023/06/24 04:09:22;;;;;;;7.38;5.82;;;;;;;;;;5082762;27;41988;-35
2023/06/24 04:11:53;;;;;;;6.68;6.00;;;;;;;;;;5051319;28;38837;-35
2023/06/24 04:14:21;;;;;;;7.97;6.95;;;;;;;;;;5061572;28;43399;-28
2023/06/24 04:16:51;;;;;;;7.47;6.25;;;;;;;;;;5061765;28;40574;-28
2023/06/24 04:19:18;;;;;;;7.22;6.53;;;;;;;;;;5072295;28;40978;-28
2023/06/24 04:21:46;;;;;;;7.40;6.70;;;;;;;;;;5055164;28;44462;-28
2023/06/24 04:24:14;;;;;;;7.72;6.50;;;;;;;;;;5059612;28;38875;-28
2023/06/24 04:26:42;;;;;;;10.02;7.00;;;;;;;;;;5050056;28;42257;-28
2023/06/24 04:29:10;;;;;;;7.80;7.00;;;;;;;;;;5054750;28;41484;-28
2023/06/24 04:31:39;;;;;;;8.60;7.15;;;;;;;;;;5053224;28;38831;-28
2023/06/24 04:34:09;;;;;;;7.30;6.32;;;;;;;;;;5064640;28;42824;-28
2023/06/24 04:36:37;;;;;;;8.00;7.20;;;;;;;;;;5062981;28;38712;-28
2023/06/24 04:39:05;;;;;;;7.25;6.38;;;;;;;;;;5064667;28;41254;-28
2023/06/24 04:41:33;;;;;;;8.40;7.00;;;;;;;;;;5063214;28;41461;-29
2023/06/24 04:44:01;;;;;;;9.52;8.40;;;;;;;;;;5065247;28;40678;-28
2023/06/24 04:46:29;;;;;;;10.40;8.05;;;;;;;;;;5062559;28;42629;-28
2023/06/24 04:48:57;;;;;;;10.43;8.32;;;;;;;;;;5065199;28;44020;-28
2023/06/24 04:51:26;;;;;;;9.20;8.30;;;;;;;;;;5067008;28;40335;-28
2023/06/24 04:53:55;;;;;;;9.15;8.32;;;;;;;;;;5069245;28;42913;-31
2023/06/24 04:56:23;;;;;;;12.73;8.65;;;;;;;;;;5066682;28;42743;-28
2023/06/24 04:58:50;;;;;;;9.95;8.95;;;;;;;;;;5069532;28;42858;-28
2023/06/24 05:01:18;;;;;;;11.38;9.13;;;;;;;;;;5067960;28;43599;-27
2023/06/24 05:03:47;;;;;;;11.13;9.55;;;;;;;;;;5068528;28;42233;-29
2023/06/24 05:06:15;;;;;;;10.13;8.98;;;;;;;;;;5068700;28;43678;-28
2023/06/24 05:08:44;;;;;;;9.65;8.35;;;;;;;;;;5069457;28;43215;-28
2023/06/24 05:11:12;;;;;;;9.85;8.27;;;;;;;;;;5068269;28;39747;-28
2023/06/24 05:13:41;;;;;;;10.23;8.82;;;;;;;;;;5067711;28;42242;-29
2023/06/24 05:16:09;;;;;;;9.88;8.88;;;;;;;;;;5069555;28;43823;-28
2023/06/24 05:18:36;;;;;;;10.30;8.93;;;;;;;;;;5067052;28;43315;-28
2023/06/24 05:21:04;;;;;;;11.25;10.10;;;;;;;;;;5069149;28;43405;-28
2023/06/24 05:23:32;;;;;;;10.15;9.05;;;;;;;;;;5068204;28;40664;-34
2023/06/24 05:26:02;;;;;;;11.40;9.95;;;;;;;;;;5067839;28;42951;-28
2023/06/24 05:28:30;;;;;;;13.75;10.65;;;;;;;;;;5067986;28;44174;-28
2023/06/24 05:30:58;;;;;;;11.65;10.35;;;;;;;;;;5067926;28;40457;-28
2023/06/24 05:33:26;;;;;;;12.50;8.73;;;;;;;;;;5067676;28;42907;-28
2023/06/24 05:35:54;;;;;;;12.02;9.82;;;;;;;;;;5064063;28;44417;-28
2023/06/24 05:38:22;;;;;;;11.93;9.23;;;;;;;;;;5061710;28;40112;-28
2023/06/24 05:40:49;;;;;;;11.30;8.95;;;;;;;;;;5067928;28;43700;-28
2023/06/24 05:43:19;;;;;;;10.30;9.25;;;;;;;;;;5063439;28;41031;-28
2023/06/24 05:45:47;;;;;;;10.82;8.55;;;;;;;;;;5023771;28;42924;-28
2023/06/24 05:48:15;;;;;;;9.98;8.90;;;;;;;;;;5029470;28;43382;-27
2023/06/24 05:50:43;;;;;;;10.45;9.35;;;;;;;;;;5027601;28;40275;-29
2023/06/24 05:53:11;;;;;;;12.38;9.15;;;;;;;;;;5028562;28;42810;-28
2023/06/24 05:55:39;;;;;;;12.35;10.35;;;;;;;;;;5027617;28;43278;-28
2023/06/24 05:58:07;;;;;;;10.13;9.13;;;;;;;;;;5028618;28;40583;-28
2023/06/24 06:00:36;;;;;;;11.90;9.68;;;;;;;;;;5027341;28;42695;-28
2023/06/24 06:03:05;;;;;;;11.15;9.05;;;;;;;;;;5027583;28;40534;-28
2023/06/24 06:05:33;;;;;;;13.68;10.32;;;;;;;;;;5027860;28;42819;-30
2023/06/24 06:08:01;;;;;;;12.15;9.57;;;;;;;;;;5025485;28;44151;-28
2023/06/24 06:10:29;;;;;;;11.02;9.93;;;;;;;;;;5027627;28;40386;-28
2023/06/24 06:12:57;;;;;;;15.40;9.52;;;;;;;;;;5027636;28;42680;-27
2023/06/24 06:15:25;;;;;;;12.43;9.63;;;;;;;;;;5026458;28;43432;-29
2023/06/24 06:17:55;;;;;;;11.93;10.65;;;;;;;;;;5027507;28;41375;-28
2023/06/24 06:20:23;;;;;;;12.40;9.68;;;;;;;;;;5026699;28;43300;-30
2023/06/24 06:22:51;;;;;;;12.20;10.98;;;;;;;;;;5028141;28;43999;-28
2023/06/24 06:25:19;;;;;;;13.75;11.60;;;;;;;;;;5027478;28;43324;-27
2023/06/24 06:27:47;;;;;;;15.65;11.38;;;;;;;;;;5027218;28;43576;-29
2023/06/24 06:30:15;;;;;;;13.10;11.02;;;;;;;;;;5028130;28;39991;-31
2023/06/24 06:32:43;;;;;;;13.93;11.93;;;;;;;;;;5028205;28;42681;-27
2023/06/24 06:35:12;;;;;;;13.90;11.52;;;;;;;;;;5027272;28;44543;-29
2023/06/24 06:37:40;;;;;;;13.30;11.57;;;;;;;;;;5027301;28;40297;-28
2023/06/24 06:40:08;;;;;;;12.40;10.95;;;;;;;;;;5027675;28;44159;-28
2023/06/24 06:42:36;;;;;;;15.63;11.68;;;;;;;;;;5026529;28;43237;-28
2023/06/24 06:45:05;;;;;;;13.13;10.50;;;;;;;;;;5054407;28;41378;-28
2023/06/24 06:47:33;;;;;;;15.45;11.15;;;;;;;;;;5062396;28;43330;-31
2023/06/24 06:50:01;;;;;;;12.30;10.68;;;;;;;;;;5056322;28;41053;-27
2023/06/24 06:52:30;;;;;;;12.75;10.02;;;;;;;;;;5063347;28;42842;-28
2023/06/24 06:54:58;;;;;;;14.73;9.88;;;;;;;;;;5059290;28;43276;-29
2023/06/24 06:57:26;;;;;;;14.40;9.95;;;;;;;;;;5063416;28;41480;-27
2023/06/24 06:59:55;;;;;;;13.20;9.73;;;;;;;;;;5065550;28;42558;-27
2023/06/24 07:02:23;;;;;;;13.02;9.13;;;;;;;;;;5065998;28;43540;-28
2023/06/24 07:04:51;;;;;;;11.73;8.77;;;;;;;;;;5066752;28;41060;-28
2023/06/24 07:07:19;;;;;;;12.68;9.25;;;;;;;;;;5066941;28;42829;-26
2023/06/24 07:09:49;;;;;;;10.77;8.07;;;;;;;;;;5066444;28;39917;-27
2023/06/24 07:12:17;;;;;;;9.48;8.10;;;;;;;;;;5066658;28;42669;-27
2023/06/24 07:14:45;;;;;;;8.85;7.40;;;;;;;;;;5065857;28;43424;-27
2023/06/24 07:17:14;;;;;;;9.63;7.82;;;;;;;;;;5066091;28;41357;-27
2023/06/24 07:19:42;;;;;;;9.02;7.40;;;;;;;;;;5067069;28;43154;-27
2023/06/24 07:22:10;;;;;;;8.88;7.95;;;;;;;;;;5065657;28;42979;-28
2023/06/24 07:24:38;;;;;;;10.00;7.00;;;;;;;;;;5065136;28;40324;-27
2023/06/24 07:27:07;;;;;;;8.90;7.47;;;;;;;;;;5067222;28;41531;-27
2023/06/24 07:29:36;;;;;;;9.45;6.68;;;;;;;;;;5065376;28;40058;-27
2023/06/24 07:32:04;;;;;;;7.95;6.50;;;;;;;;;;5064912;28;43408;-27
2023/06/24 07:34:32;;;;;;;9.98;7.05;;;;;;;;;;5065573;28;43620;-29
2023/06/24 07:37:00;;;;;;;6.35;5.75;;;;;;;;;;5067078;28;40483;-29
2023/06/24 07:39:41;;;;;;;9.57;5.80;;;;;;;;;;5064184;28;41809;-27
2023/06/24 07:42:11;;;;;;;9.20;5.25;;;;;;;;;;5066120;28;43482;-33
2023/06/24 07:44:39;;;;;;;7.70;5.13;;;;;;;;;;5059817;28;41776;-27
2023/06/24 07:47:07;;;;;;;8.13;4.70;;;;;;;;;;5066051;28;43635;-27
2023/06/24 07:49:35;;;;;;;6.35;4.22;;;;;;;;;;5065444;28;44434;-27
2023/06/24 07:52:04;;;;;;;5.20;4.32;;;;;;;;;;5056830;28;43819;-27
2023/06/24 07:54:32;;;;;;;4.40;3.65;;;;;;;;;;5057384;28;43175;-27
2023/06/24 07:57:00;;;;;;;6.40;4.10;;;;;;;;;;5055304;28;42195;-28
2023/06/24 07:59:29;;;;;;;3.78;3.38;;;;;;;;;;5057277;28;42801;-27
2023/06/24 08:01:57;;;;;;;6.25;3.83;;;;;;;;;;5057362;28;45326;-27
2023/06/24 08:04:25;;;;;;;4.30;3.90;;;;;;;;;;5061627;28;39886;-27
2023/06/24 08:06:53;;;;;;;7.03;4.55;;;;;;;;;;5065254;28;42431;-27
2023/06/24 08:09:21;;;;;;;4.32;3.60;;;;;;;;;;5065175;28;43547;-28
2023/06/24 08:11:49;;;;;;;5.57;3.85;;;;;;;;;;5057654;28;40826;-28
2023/06/24 08:14:17;;;;;;;5.80;3.80;;;;;;;;;;5061395;28;43763;-29
2023/06/24 08:16:46;;;;;;;6.55;3.90;;;;;;;;;;5055154;28;41442;-27
2023/06/24 08:19:15;;;;;;;6.25;3.88;;;;;;;;;;5064744;28;43747;-27
2023/06/24 08:21:43;;;;;;;4.93;3.88;;;;;;;;;;5064130;28;44406;-27
2023/06/24 08:24:10;;;;;;;5.90;3.30;;;;;;;;;;5065331;28;40401;-27
2023/06/24 08:26:39;;;;;;;5.97;3.67;;;;;;;;;;5061500;28;42676;-28
2023/06/24 08:29:07;;;;;;;6.15;4.00;;;;;;;;;;5052590;28;44630;-27
2023/06/24 08:31:35;;;;;;;6.22;3.63;;;;;;;;;;5068225;28;41315;-30
2023/06/24 08:34:06;;;;;;;6.75;4.20;;;;;;;;;;5068826;28;43755;-27
2023/06/24 08:36:33;;;;;;;4.53;3.42;;;;;;;;;;5069108;28;40483;-27
2023/06/24 08:39:01;;;;;;;4.78;3.88;;;;;;;;;;5068336;28;42771;-27
2023/06/24 08:41:29;;;;;;;4.20;3.70;;;;;;;;;;5066550;28;43851;-28
2023/06/24 08:43:57;;;;;;;5.22;3.70;;;;;;;;;;5064389;28;38672;-27
2023/06/24 08:46:26;;;;;;;6.03;4.40;;;;;;;;;;5066781;28;43032;-27
2023/06/24 08:48:55;;;;;;;7.90;3.65;;;;;;;;;;5066599;28;44175;-28
2023/06/24 08:51:24;;;;;;;11.70;3.63;;;;;;;;;;5067085;28;41077;-25
2023/06/24 08:53:52;;;;;;;4.85;3.70;;;;;;;;;;5067247;28;43307;-25
2023/06/24 08:56:20;;;;;;;4.35;3.40;;;;;;;;;;5067302;28;44435;-24
2023/06/24 08:58:48;;;;;;;5.57;3.60;;;;;;;;;;5068574;28;42553;-25
2023/06/24 09:01:16;;;;;;;5.53;3.38;;;;;;;;;;5067925;28;43324;-28
2023/06/24 09:03:44;;;;;;;4.65;3.67;;;;;;;;;;5067983;28;41291;-25
2023/06/24 09:06:12;;;;;;;5.57;3.95;;;;;;;;;;5068863;28;42435;-25
2023/06/24 09:08:41;;;;;;;4.25;3.40;;;;;;;;;;5067809;28;43576;-25
2023/06/24 09:11:09;;;;;;;4.05;3.65;;;;;;;;;;5067334;28;40960;-25
2023/06/24 09:13:37;;;;;;;5.13;3.70;;;;;;;;;;5067436;28;43077;-26
2023/06/24 09:16:12;;;;;;;5.32;3.70;;;;;;;;;;5067712;28;42920;-26
2023/06/24 09:18:40;;;;;;;5.13;3.90;;;;;;;;;;5068847;28;41453;-25
2023/06/24 09:21:08;;;;;;;5.43;3.60;;;;;;;;;;5068238;28;43281;-25
2023/06/24 09:23:36;;;;;;;5.25;3.60;;;;;;;;;;5053335;28;40901;-26
2023/06/24 09:26:05;;;;;;;5.85;3.83;;;;;;;;;;5068376;28;43176;-26
2023/06/24 09:28:33;;;;;;;4.97;3.90;;;;;;;;;;5067361;28;43657;-25
2023/06/24 09:31:05;;;;;;;4.40;3.20;;;;;;;;;;5067802;28;40928;-26
2023/06/24 09:33:46;;;;;;;5.65;3.67;;;;;;;;;;5064989;28;42677;-25
2023/06/24 09:36:14;;;;;;;3.95;3.35;;;;;;;;;;5068223;28;44555;-26
2023/06/24 09:38:44;;;;;;;5.45;3.67;;;;;;;;;;5066946;28;40816;-26
2023/06/24 09:41:13;;;;;;;4.03;3.40;;;;;;;;;;5068146;28;44372;-26
2023/06/24 09:43:43;;;;;;;4.63;3.40;;;;;;;;;;5067209;28;40465;-26
2023/06/24 09:46:12;;;;;;;5.32;3.30;;;;;;;;;;5064884;28;42744;-25
2023/06/24 09:48:40;;;;;;;3.58;3.00;;;;;;;;;;5067725;28;44741;-25
2023/06/24 09:51:08;;;;;;;3.80;2.83;;;;;;;;;;5067553;28;41485;-26
2023/06/24 09:53:36;;;;;;;3.35;3.00;;;;;;;;;;5067009;28;42557;-25
2023/06/24 09:56:04;;;;;;;3.92;2.80;;;;;;;;;;5067867;28;43553;-26
2023/06/24 09:58:35;;;;;;;4.57;3.13;;;;;;;;;;5066361;28;41704;-25
2023/06/24 10:01:04;;;;;;;5.43;3.47;;;;;;;;;;5068747;28;42137;-25
2023/06/24 10:03:32;;;;;;;4.15;2.90;;;;;;;;;;5067115;28;40090;-26
2023/06/24 10:06:01;;;;;;;5.63;2.83;;;;;;;;;;5066745;28;42750;-25
2023/06/24 10:08:29;;;;;;;3.15;2.78;;;;;;;;;;5066856;28;44296;-25
2023/06/24 10:10:57;;;;;;;5.32;2.97;;;;;;;;;;5067470;28;39864;-25
2023/06/24 10:13:25;;;;;;;4.22;2.80;;;;;;;;;;5066232;28;43071;-26
2023/06/24 10:15:55;;;;;;;3.78;2.80;;;;;;;;;;5066983;28;43429;-25
2023/06/24 10:18:32;;;;;;;6.82;3.10;;;;;;;;;;5067071;28;40276;-25
2023/06/24 10:21:00;;;;;;;3.10;2.80;;;;;;;;;;5066342;28;43075;-25
2023/06/24 10:23:32;;;;;;;4.43;2.72;;;;;;;;;;5067395;28;43366;-25
2023/06/24 10:26:00;;;;;;;3.92;3.03;;;;;;;;;;5062383;28;43750;-26
2023/06/24 10:28:28;;;;;;;5.22;2.97;;;;;;;;;;5065875;28;44458;-25
2023/06/24 10:30:57;;;;;;;4.50;2.85;;;;;;;;;;5067337;28;41050;-24
2023/06/24 10:33:25;;;;;;;4.40;3.25;;;;;;;;;;5066005;28;43335;-25
2023/06/24 10:35:53;;;;;;;3.50;3.20;;;;;;;;;;5067660;28;43430;-25
2023/06/24 10:38:21;;;;;;;3.38;2.90;;;;;;;;;;5066941;28;41365;-25
2023/06/24 10:40:49;;;;;;;4.95;3.08;;;;;;;;;;5066731;28;42773;-26
2023/06/24 10:43:24;;;;;;;4.68;2.88;;;;;;;;;;5066325;28;43036;-26
2023/06/24 10:45:52;;;;;;;3.45;2.97;;;;;;;;;;5066003;28;39138;-26
2023/06/24 10:48:21;;;;;;;4.55;2.80;;;;;;;;;;5065945;28;43225;-25
2023/06/24 10:50:50;;;;;;;3.53;2.80;;;;;;;;;;5066994;28;42233;-25
2023/06/24 10:53:19;;;;;;;3.25;2.95;;;;;;;;;;5067850;28;20230;-26
2023/06/24 10:55:47;;;;;;;4.57;3.00;;;;;;;;;;5066614;28;43050;-25
2023/06/24 10:58:15;;;;;;;5.47;3.03;;;;;;;;;;5067273;28;40543;-25
2023/06/24 11:00:45;;;;;;;4.70;2.80;;;;;;;;;;5066540;28;42741;-26
2023/06/24 11:03:14;;;;;;;5.50;3.17;;;;;;;;;;5066293;28;44459;-25
2023/06/24 11:05:43;;;;;;;6.50;3.30;;;;;;;;;;5066551;28;41203;-26
2023/06/24 11:08:11;;;;;;;4.18;3.33;;;;;;;;;;5067199;28;42436;-25
2023/06/24 11:10:45;;;;;;;3.45;2.97;;;;;;;;;;5065207;28;40509;-25
2023/06/24 11:13:13;;;;;;;3.22;2.80;;;;;;;;;;5066068;28;43196;-31
2023/06/24 11:15:42;;;;;;;3.10;2.80;;;;;;;;;;5065531;28;43548;-29
2023/06/24 11:18:10;;;;;;;3.17;2.88;;;;;;;;;;5066638;28;40428;-34
2023/06/24 11:20:39;;;;;;;3.42;2.90;;;;;;;;;;5065611;28;42798;-32
2023/06/24 11:23:10;;;;;;;3.60;3.10;;;;;;;;;;5065911;28;43602;-30
2023/06/24 11:25:41;;;;;;;3.63;3.00;;;;;;;;;;5062912;28;40314;-30
2023/06/24 11:28:16;;;;;;;3.53;2.88;;;;;;;;;;5065884;28;43758;-29
2023/06/24 11:30:49;;;;;;;4.78;3.13;;;;;;;;;;5064081;28;33971;-29
2023/06/24 11:33:26;;;;;;;5.65;3.10;;;;;;;;;;5066733;28;44518;-29
2023/06/24 11:35:55;;;;;;;4.45;2.97;;;;;;;;;;5065958;28;43368;-29
2023/06/24 11:38:24;;;;;;;3.58;3.05;;;;;;;;;;5064592;28;40820;-32
2023/06/24 11:40:52;;;;;;;4.75;3.08;;;;;;;;;;5067016;28;43047;-30
2023/06/24 11:43:20;;;;;;;4.82;3.30;;;;;;;;;;5066014;28;43159;-33
2023/06/24 11:45:49;;;;;;;5.25;3.55;;;;;;;;;;5065776;28;41238;-30
2023/06/24 11:48:16;;;;;;;5.80;3.60;;;;;;;;;;5066183;28;42677;-31
2023/06/24 11:50:44;;;;;;;5.25;3.25;;;;;;;;;;5065639;28;42324;-30
2023/06/24 11:53:12;;;;;;;7.28;3.45;;;;;;;;;;5062355;28;42701;-31
2023/06/24 11:55:42;;;;;;;5.93;3.33;;;;;;;;;;5059224;28;43775;-29
2023/06/24 11:58:10;;;;;;;4.07;3.38;;;;;;;;;;5064217;28;40518;-32
2023/06/24 12:00:39;;;;;;;4.03;3.45;;;;;;;;;;5062483;28;41060;-33
2023/06/24 12:03:07;;;;;;;4.32;3.60;;;;;;;;;;5064926;28;44320;-35
2023/06/24 12:05:44;;;;;;;4.75;3.20;;;;;;;;;;5062077;28;42152;-30
2023/06/24 12:08:12;;;;;;;5.95;3.60;;;;;;;;;;5062948;28;43381;-29
2023/06/24 12:10:42;;;;;;;5.32;3.60;;;;;;;;;;5065344;28;43215;-30
2023/06/24 12:13:10;;;;;;;5.57;3.35;;;;;;;;;;5062419;28;40281;-30
2023/06/24 12:15:38;;;;;;;3.10;2.80;;;;;;;;;;5061284;28;43690;-33
2023/06/24 12:18:06;;;;;;;9.20;3.72;;;;;;;;;;5060056;28;41092;-29
2023/06/24 12:20:34;;;;;;;5.63;3.53;;;;;;;;;;5064474;28;43849;-30
2023/06/24 12:23:05;;;;;;;8.55;4.13;;;;;;;;;;5059036;28;43822;-29
2023/06/24 12:25:33;;;;;;;5.10;3.75;;;;;;;;;;5052119;28;40023;-33
2023/06/24 12:28:03;;;;;;;3.78;3.38;;;;;;;;;;5063280;28;42842;-31
2023/06/24 12:30:31;;;;;;;4.90;3.17;;;;;;;;;;5065146;28;44407;-31
2023/06/24 12:32:59;;;;;;;4.68;3.83;;;;;;;;;;5064568;28;40709;-30
2023/06/24 12:35:27;;;;;;;4.00;3.60;;;;;;;;;;5065187;28;43684;-32
2023/06/24 12:37:55;;;;;;;5.07;3.60;;;;;;;;;;5065544;28;40374;-30
2023/06/24 12:40:23;;;;;;;6.47;4.00;;;;;;;;;;5064788;28;43703;-31
2023/06/24 12:42:51;;;;;;;5.50;4.47;;;;;;;;;;5063687;28;44190;-29
2023/06/24 12:45:20;;;;;;;5.22;4.05;;;;;;;;;;5056510;28;39814;-29
2023/06/24 12:47:50;;;;;;;8.23;4.20;;;;;;;;;;5060777;28;41972;-29
2023/06/24 12:50:18;;;;;;;4.60;4.03;;;;;;;;;;5063039;28;44648;-29
2023/06/24 12:52:46;;;;;;;5.18;4.13;;;;;;;;;;5063809;28;40182;-30
2023/06/24 12:55:14;;;;;;;4.47;4.07;;;;;;;;;;5063263;28;42893;-29
2023/06/24 12:57:44;;;;;;;7.15;4.47;;;;;;;;;;5065063;28;43278;-34
2023/06/24 13:00:12;;;;;;;6.93;4.38;;;;;;;;;;5065982;28;43215;-33
2023/06/24 13:02:42;;;;;;;6.05;4.38;;;;;;;;;;5064177;28;43425;-30
2023/06/24 13:05:10;;;;;;;4.50;4.10;;;;;;;;;;5064761;28;40910;-30
2023/06/24 13:07:38;;;;;;;5.50;4.30;;;;;;;;;;5065019;28;43643;-29
2023/06/24 13:10:06;;;;;;;6.30;4.40;;;;;;;;;;5064434;28;43035;-30
2023/06/24 13:12:34;;;;;;;9.55;4.50;;;;;;;;;;5067030;28;39992;-32
2023/06/24 13:15:04;;;;;;;4.57;4.10;;;;;;;;;;5068912;28;42571;-30
2023/06/24 13:17:32;;;;;;;5.75;3.97;;;;;;;;;;5066359;28;41795;-26
2023/06/24 13:20:04;;;;;;;7.35;4.32;;;;;;;;;;5069358;28;42555;-25
2023/06/24 13:22:32;;;;;;;5.10;4.35;;;;;;;;;;5067210;28;43965;-25
2023/06/24 13:25:00;;;;;;;5.75;4.50;;;;;;;;;;5068586;28;41317;-26
2023/06/24 13:27:28;;;;;;;4.20;3.80;;;;;;;;;;5067384;28;42705;-30
2023/06/24 13:29:56;;;;;;;4.53;4.05;;;;;;;;;;5067193;28;44389;-30
2023/06/24 13:32:24;;;;;;;5.40;4.07;;;;;;;;;;5068417;28;41412;-29
2023/06/24 13:34:52;;;;;;;5.32;4.13;;;;;;;;;;5068063;28;43173;-31
2023/06/24 13:37:21;;;;;;;5.78;3.60;;;;;;;;;;5066343;28;44267;-34
2023/06/24 13:39:50;;;;;;;5.05;4.00;;;;;;;;;;5058055;28;40387;-29
2023/06/24 13:42:18;;;;;;;5.47;4.07;;;;;;;;;;5064584;28;43174;-29
2023/06/24 13:44:46;;;;;;;8.90;4.28;;;;;;;;;;5064632;28;42293;-29
2023/06/24 13:47:14;;;;;;;4.65;3.97;;;;;;;;;;5067884;28;42638;-29
2023/06/24 13:49:42;;;;;;;5.97;4.15;;;;;;;;;;5064916;28;44892;-29
2023/06/24 13:52:09;;;;;;;4.78;4.07;;;;;;;;;;5060839;28;41335;-31
2023/06/24 13:54:39;;;;;;;6.80;5.05;;;;;;;;;;5058084;28;42924;-34
2023/06/24 13:57:07;;;;;;;6.97;4.35;;;;;;;;;;5060470;28;42855;-32
2023/06/24 13:59:35;;;;;;;4.65;4.10;;;;;;;;;;5058280;28;39885;-29
2023/06/24 14:02:03;;;;;;;6.18;4.18;;;;;;;;;;5061237;28;43354;-32
2023/06/24 14:04:31;;;;;;;4.88;4.38;;;;;;;;;;5058605;28;41097;-29
2023/06/24 14:06:59;;;;;;;5.28;4.78;;;;;;;;;;5061276;28;43508;-30
2023/06/24 14:09:27;;;;;;;6.07;4.40;;;;;;;;;;5059005;28;41323;-30
2023/06/24 14:11:57;;;;;;;6.18;4.25;;;;;;;;;;5059795;28;41935;-30
2023/06/24 14:14:25;;;;;;;4.38;3.97;;;;;;;;;;5059818;28;43321;-34
2023/06/24 14:16:53;;;;;;;8.98;4.13;;;;;;;;;;5057941;28;43384;-29
2023/06/24 14:19:21;;;;;;;8.40;4.28;;;;;;;;;;5059693;28;41294;-30
2023/06/24 14:21:52;;;;;;;5.22;4.20;;;;;;;;;;5056685;28;42688;-30
2023/06/24 14:24:20;;;;;;;4.82;4.38;;;;;;;;;;5062109;28;43271;-30
2023/06/24 14:26:49;;;;;;;7.15;4.13;;;;;;;;;;5060223;28;42242;-31
2023/06/24 14:29:18;;;;;;;7.20;4.47;;;;;;;;;;5055300;28;43653;-29
2023/06/24 14:31:46;;;;;;;4.72;3.70;;;;;;;;;;5066209;28;40676;-32
2023/06/24 14:34:14;;;;;;;4.82;4.32;;;;;;;;;;5066070;28;43684;-30
2023/06/24 14:36:42;;;;;;;8.10;4.13;;;;;;;;;;5066525;28;43196;-32
2023/06/24 14:39:10;;;;;;;4.20;3.80;;;;;;;;;;5065727;28;40277;-29
2023/06/24 14:41:38;;;;;;;4.25;3.53;;;;;;;;;;5066809;28;43005;-30
2023/06/24 14:44:06;;;;;;;4.95;4.05;;;;;;;;;;5067136;28;43050;-33
2023/06/24 14:46:35;;;;;;;5.20;4.28;;;;;;;;;;5063962;28;40867;-36
2023/06/24 14:49:04;;;;;;;6.90;4.15;;;;;;;;;;5066839;28;44111;-34
2023/06/24 14:51:32;;;;;;;6.43;4.10;;;;;;;;;;5066809;28;42684;-31